Time;durP1;ratioP1;P1;durP2;ratioP2;P2;SDS_P1;SDS_P2;PMS_P1;PMS_P2;Temp;Humidity;BMP_temperature;BMP_pressure;BME280_temperature;BME280_humidity;BME280_pressure;Samples;Min_cycle;Max_cycle;Signal;HPM_P1;HPM_P2
2021/03/16 00:01:33;;;;;;;7.05;6.22;;;;;;;2.64;97.72;97982.36;1781517;80;21129;-55
2021/03/16 00:04:03;;;;;;;9.38;6.00;;;;;;;2.63;97.72;97986.81;1796431;79;21225;-54
2021/03/16 00:06:35;;;;;;;8.55;6.60;;;;;;;2.63;97.83;97985.98;1767436;79;21198;-53
2021/03/16 00:09:03;;;;;;;7.97;6.28;;;;;;;2.64;97.85;97982.36;1810552;78;21005;-53
2021/03/16 00:11:31;;;;;;;7.03;5.58;;;;;;;2.65;97.92;97980.08;1794186;79;21182;-54
2021/03/16 00:13:59;;;;;;;7.72;5.78;;;;;;;2.64;97.95;97977.94;1784054;78;21112;-54
2021/03/16 00:16:27;;;;;;;9.80;6.17;;;;;;;2.64;97.95;97977.11;1749342;80;21399;-54
2021/03/16 00:18:57;;;;;;;8.55;6.15;;;;;;;2.64;97.91;97973.17;1801714;79;21064;-54
2021/03/16 00:21:24;;;;;;;8.85;5.72;;;;;;;2.64;97.86;97971.38;1783965;78;20949;-54
2021/03/16 00:23:51;;;;;;;6.78;5.75;;;;;;;2.65;97.91;97971.72;1806716;79;21155;-54
2021/03/16 00:26:19;;;;;;;11.97;6.08;;;;;;;2.67;97.92;97976.31;1799740;79;21112;-54
2021/03/16 00:28:47;;;;;;;7.35;4.90;;;;;;;2.70;97.75;97976.01;1791208;79;21390;-53
2021/03/16 00:31:15;;;;;;;7.05;4.78;;;;;;;2.69;97.71;97974.34;1796388;78;21025;-54
2021/03/16 00:33:42;;;;;;;11.15;5.75;;;;;;;2.68;97.62;97970.58;1748073;81;21190;-55
2021/03/16 00:36:10;;;;;;;11.20;5.42;;;;;;;2.66;97.66;97965.47;1753416;80;21211;-55
2021/03/16 00:38:39;;;;;;;9.65;5.85;;;;;;;2.65;97.69;97955.13;1759987;80;21068;-55
2021/03/16 00:41:06;;;;;;;9.48;5.58;;;;;;;2.66;97.78;97956.80;1779669;80;21212;-55
2021/03/16 00:43:33;;;;;;;11.53;5.90;;;;;;;2.63;97.76;97957.94;1801437;79;21148;-55
2021/03/16 00:46:01;;;;;;;10.85;7.05;;;;;;;2.62;97.75;97954.96;1794306;78;21217;-55
2021/03/16 00:48:29;;;;;;;10.58;6.78;;;;;;;2.61;97.78;97958.55;1808059;79;20941;-55
2021/03/16 00:50:58;;;;;;;9.63;5.37;;;;;;;2.59;97.89;97959.20;1812349;78;20926;-54
2021/03/16 00:53:26;;;;;;;7.67;5.65;;;;;;;2.59;97.92;97965.77;1816858;78;21381;-55
2021/03/16 00:55:56;;;;;;;10.00;5.55;;;;;;;2.57;97.93;97953.30;1797279;79;21159;-55
2021/03/16 00:58:26;;;;;;;9.83;5.37;;;;;;;2.57;98.10;97957.72;1783962;79;21173;-55
2021/03/16 01:00:53;;;;;;;9.25;4.65;;;;;;;2.57;98.20;97953.30;1784006;78;21700;-55
2021/03/16 01:03:22;;;;;;;8.93;4.80;;;;;;;2.59;98.19;97950.02;1764960;78;21534;-54
2021/03/16 01:05:52;;;;;;;7.75;4.37;;;;;;;2.63;98.20;97953.16;1781618;80;21364;-55
2021/03/16 01:08:20;;;;;;;9.15;4.30;;;;;;;2.63;98.10;97942.17;1777366;78;21069;-55
2021/03/16 01:10:48;;;;;;;6.37;4.37;;;;;;;2.64;98.02;97943.80;1712185;82;21022;-55
2021/03/16 01:13:16;;;;;;;10.18;4.60;;;;;;;2.64;98.03;97942.49;1743154;82;21054;-55
2021/03/16 01:15:45;;;;;;;5.45;3.95;;;;;;;2.65;97.94;97937.59;1743208;82;21140;-54
2021/03/16 01:18:12;;;;;;;7.78;4.05;;;;;;;2.65;97.85;97934.13;1745390;82;22285;-54
2021/03/16 01:20:41;;;;;;;9.15;4.75;;;;;;;2.62;97.77;97933.95;1780283;80;21209;-54
2021/03/16 01:23:09;;;;;;;8.90;3.90;;;;;;;2.61;97.78;97934.13;1744791;82;21116;-55
2021/03/16 01:25:38;;;;;;;8.93;3.90;;;;;;;2.59;97.64;97937.38;1780835;80;21107;-55
2021/03/16 01:28:06;;;;;;;8.93;4.10;;;;;;;2.55;97.76;97925.08;1781564;80;21040;-53
2021/03/16 01:30:33;;;;;;;10.53;4.30;;;;;;;2.55;97.79;97929.02;1776919;78;21197;-54
2021/03/16 01:33:01;;;;;;;6.20;3.90;;;;;;;2.50;97.95;97921.58;1780856;80;21009;-53
2021/03/16 01:35:29;;;;;;;7.05;3.15;;;;;;;2.48;98.02;97928.80;1758575;80;21074;-54
2021/03/16 01:37:56;;;;;;;7.35;2.85;;;;;;;2.46;97.99;97919.44;1781608;80;21483;-54
2021/03/16 01:40:39;;;;;;;4.97;2.67;;;;;;;2.43;98.07;97924.52;1778079;78;21104;-54
2021/03/16 01:43:23;;;;;;;3.37;3.08;;;;;;;2.38;98.13;97913.66;1762499;80;21385;-55
2021/03/16 01:45:50;;;;;;;8.60;3.35;;;;;;;2.34;98.32;97917.59;1781541;80;21155;-54
2021/03/16 01:48:22;;;;;;;3.87;2.98;;;;;;;2.31;98.50;97916.59;1781616;80;21491;-54
2021/03/16 01:50:50;;;;;;;10.15;3.00;;;;;;;2.30;98.68;97918.88;1774729;80;21060;-54
2021/03/16 01:53:18;;;;;;;6.70;3.25;;;;;;;2.29;98.82;97918.55;1769272;80;21053;-55
2021/03/16 01:55:46;;;;;;;5.45;2.83;;;;;;;2.27;98.86;97909.16;1770846;78;22046;-55
2021/03/16 01:58:13;;;;;;;4.00;2.22;;;;;;;2.27;98.84;97912.62;1780177;78;21001;-55
2021/03/16 02:01:00;;;;;;;3.15;2.75;;;;;;;2.29;98.91;97917.73;1779452;80;20918;-54
2021/03/16 02:03:49;;;;;;;9.15;3.33;;;;;;;2.28;98.83;97918.69;1787924;79;20950;-54
2021/03/16 02:07:04;;;;;;;10.48;3.40;;;;;;;2.32;98.89;97913.48;1795730;79;21104;-54
2021/03/16 02:09:55;;;;;;;15.05;3.65;;;;;;;2.32;98.74;97912.97;1796875;79;21234;-54
2021/03/16 02:12:59;;;;;;;7.33;3.22;;;;;;;2.29;98.78;97915.10;1794744;79;21159;-54
2021/03/16 02:15:45;;;;;;;6.42;3.60;;;;;;;2.27;98.76;97911.78;1784481;79;21049;-54
2021/03/16 02:18:35;;;;;;;7.42;3.35;;;;;;;2.26;98.85;97910.98;1795040;79;21159;-54
2021/03/16 02:21:34;;;;;;;6.75;3.75;;;;;;;2.27;98.78;97916.55;1777786;79;21159;-53
2021/03/16 02:24:37;;;;;;;11.15;3.37;;;;;;;2.27;98.76;97923.59;1799947;79;21202;-54
2021/03/16 02:27:25;;;;;;;6.25;3.83;;;;;;;2.26;98.78;97916.72;1773184;79;20962;-54
2021/03/16 02:30:11;;;;;;;4.42;3.35;;;;;;;2.22;98.67;97929.31;1760105;79;21164;-53
2021/03/16 02:32:59;;;;;;;5.28;3.02;;;;;;;2.20;98.72;97929.97;1799883;79;21020;-54
2021/03/16 02:35:47;;;;;;;10.55;3.42;;;;;;;2.20;98.89;97929.97;1783472;79;21124;-53
2021/03/16 02:38:41;;;;;;;7.12;2.80;;;;;;;2.22;98.81;97922.76;1742872;81;21370;-54
2021/03/16 02:41:28;;;;;;;3.35;2.62;;;;;;;2.19;98.72;97925.69;1738423;81;21211;-53
2021/03/16 02:44:15;;;;;;;8.70;3.55;;;;;;;2.17;98.76;97928.96;1732945;82;21117;-53
2021/03/16 02:47:03;;;;;;;8.98;3.50;;;;;;;2.18;98.73;97926.69;1742063;81;21144;-54
2021/03/16 02:49:49;;;;;;;7.50;3.50;;;;;;;2.16;98.59;97923.41;1759253;81;21498;-53
2021/03/16 02:52:36;;;;;;;4.62;3.15;;;;;;;2.14;98.61;97923.22;1745018;81;26040;-55
2021/03/16 02:55:24;;;;;;;4.70;2.92;;;;;;;2.12;98.60;97919.91;1720186;83;21057;-53
2021/03/16 02:58:10;;;;;;;10.55;4.10;;;;;;;2.07;98.77;97921.69;1746550;81;20958;-54
2021/03/16 03:00:58;;;;;;;7.92;3.33;;;;;;;2.06;98.83;97913.98;1730970;82;21072;-54
2021/03/16 03:03:46;;;;;;;8.68;2.90;;;;;;;2.06;98.97;97913.47;1715511;82;21156;-54
2021/03/16 03:06:33;;;;;;;9.25;4.55;;;;;;;2.04;98.89;97918.06;1736839;82;21363;-54
2021/03/16 03:09:20;;;;;;;7.00;3.90;;;;;;;2.02;98.99;97922.64;1723524;81;21104;-54
2021/03/16 03:12:09;;;;;;;6.30;3.12;;;;;;;2.00;98.98;97924.60;1734656;81;21129;-53
2021/03/16 03:14:55;;;;;;;9.43;3.65;;;;;;;1.99;99.09;97922.12;1756043;81;21020;-53
2021/03/16 03:17:41;;;;;;;13.65;4.30;;;;;;;1.96;99.10;97921.94;1791908;79;21176;-54
2021/03/16 03:20:27;;;;;;;;;;;;;;;1.93;99.31;97928.80;1801092;79;21359;-54
2021/03/16 03:23:29;;;;;;;13.15;3.77;;;;;;;1.93;99.51;97926.17;1805141;79;20197;-53
2021/03/16 03:26:21;;;;;;;8.93;3.67;;;;;;;1.96;99.65;97929.80;1790984;79;21184;-53
2021/03/16 03:29:10;;;;;;;5.67;2.65;;;;;;;1.97;99.66;97926.22;1780812;79;21152;-53
2021/03/16 03:31:56;;;;;;;4.62;3.27;;;;;;;1.99;99.51;97918.19;1781092;79;21241;-54
2021/03/16 03:34:43;;;;;;;3.50;3.20;;;;;;;1.97;99.43;97913.59;1786653;79;21194;-54
2021/03/16 03:37:29;;;;;;;;;;;;;;;1.94;99.34;97917.83;1797025;79;21119;-54
2021/03/16 03:40:15;;;;;;;5.65;3.22;;;;;;;1.91;99.41;97918.95;1790191;79;20238;-54
2021/03/16 03:43:03;;;;;;;6.78;4.05;;;;;;;1.88;99.45;97915.33;1802438;79;21013;-54
2021/03/16 03:45:51;;;;;;;19.32;11.20;;;;;;;1.84;99.46;97918.77;1735499;82;21109;-54
2021/03/16 03:48:37;;;;;;;10.95;7.75;;;;;;;1.85;99.72;97920.91;1741429;81;21273;-54
2021/03/16 03:51:23;;;;;;;13.22;6.37;;;;;;;1.88;99.77;97925.81;1745577;81;21129;-54
2021/03/16 03:54:11;;;;;;;9.58;5.53;;;;;;;1.86;99.53;97925.16;1745884;80;21156;-54
2021/03/16 03:56:57;;;;;;;;;;;;;;;1.82;99.60;97920.72;1750097;81;20942;-54
2021/03/16 03:59:45;;;;;;;7.25;4.22;;;;;;;1.83;99.61;97926.77;1767332;80;20247;-54
2021/03/16 04:02:31;;;;;;;9.98;4.25;;;;;;;1.83;99.62;97928.08;1811056;79;21345;-55
2021/03/16 04:05:17;;;;;;;9.40;4.87;;;;;;;1.83;99.60;97930.22;1805385;79;21095;-54
2021/03/16 04:08:06;;;;;;;14.00;4.45;;;;;;;1.81;99.45;97930.86;1803012;79;21128;-54
2021/03/16 04:10:53;;;;;;;7.28;3.72;;;;;;;1.80;99.41;97920.03;1786775;79;21001;-54
2021/03/16 04:13:39;;;;;;;15.68;4.87;;;;;;;1.80;99.34;97927.06;1777946;79;21100;-54
2021/03/16 04:16:25;;;;;;;6.83;4.10;;;;;;;1.76;99.21;97929.19;1792556;79;23206;-54
2021/03/16 04:19:11;;;;;;;10.60;4.60;;;;;;;1.73;99.13;97924.25;1797903;79;20934;-54
2021/03/16 04:21:57;;;;;;;10.48;4.83;;;;;;;1.72;99.19;97919.96;1780210;79;22074;-55
2021/03/16 04:24:43;;;;;;;11.03;3.90;;;;;;;1.68;98.94;97923.05;1789898;79;27695;-54
2021/03/16 04:27:29;;;;;;;;;;;;;;;1.63;98.88;97920.06;1786210;79;21047;-54
2021/03/16 04:30:18;;;;;;;8.95;2.75;;;;;;;1.57;98.86;97921.48;1798679;79;21352;-54
2021/03/16 04:33:04;;;;;;;4.62;2.67;;;;;;;1.52;98.96;97923.74;1811059;79;20993;-54
2021/03/16 04:35:50;;;;;;;;;;;;;;;1.51;99.06;97929.15;1808036;79;21104;-53
2021/03/16 04:38:37;;;;;;;5.97;4.42;;;;;;;1.48;99.17;97935.52;1786945;79;20226;-53
2021/03/16 04:41:22;;;;;;;4.62;4.22;;;;;;;1.47;99.32;97923.85;1786496;79;21188;-54
2021/03/16 04:44:09;;;;;;;;;;;;;;;1.47;99.32;97927.78;1803210;79;21346;-53
2021/03/16 04:46:55;;;;;;;4.95;4.47;;;;;;;1.43;99.33;97927.28;1780325;79;20128;-53
2021/03/16 04:49:41;;;;;;;4.33;3.92;;;;;;;1.41;99.54;97931.03;1782202;79;21013;-53
2021/03/16 04:52:28;;;;;;;3.40;3.10;;;;;;;1.41;99.68;97927.09;1783693;79;21587;-54
2021/03/16 04:55:14;;;;;;;4.15;3.83;;;;;;;1.41;99.81;97923.97;1782328;79;21120;-54
2021/03/16 04:58:01;;;;;;;4.72;4.33;;;;;;;1.39;99.78;97921.99;1739133;82;24892;-54
2021/03/16 05:00:47;;;;;;;5.70;5.28;;;;;;;1.39;99.85;97922.47;1754978;81;21077;-54
2021/03/16 05:03:34;;;;;;;4.47;4.08;;;;;;;1.40;100.00;97924.12;1766311;81;21151;-54
2021/03/16 05:06:20;;;;;;;;;;;;;;;1.40;100.00;97918.89;1778488;80;21203;-53
2021/03/16 05:09:06;;;;;;;5.20;4.70;;;;;;;1.40;100.00;97922.34;1742318;81;20243;-54
2021/03/16 05:11:52;;;;;;;5.10;4.60;;;;;;;1.42;100.00;97928.24;1784682;80;21382;-54
2021/03/16 05:14:38;;;;;;;;;;;;;;;1.44;100.00;97934.16;1821566;78;20945;-53
2021/03/16 05:17:25;;;;;;;4.30;3.80;;;;;;;1.44;100.00;97937.25;1806281;78;20210;-56
2021/03/16 05:20:12;;;;;;;6.00;5.40;;;;;;;1.44;100.00;97932.02;1817236;78;21019;-54
2021/03/16 05:22:58;;;;;;;9.33;5.62;;;;;;;1.44;100.00;97929.39;1795426;78;21045;-55
2021/03/16 05:25:44;;;;;;;6.17;5.58;;;;;;;1.43;100.00;97925.14;1766265;81;21266;-55
2021/03/16 05:28:30;;;;;;;5.72;5.12;;;;;;;1.45;100.00;97924.50;1809815;78;21104;-56
2021/03/16 05:31:16;;;;;;;4.97;4.47;;;;;;;1.47;100.00;97918.61;1811580;78;21162;-54
2021/03/16 05:34:02;;;;;;;8.33;4.95;;;;;;;1.50;100.00;97918.31;1749676;81;21578;-55
2021/03/16 05:36:48;;;;;;;7.65;5.90;;;;;;;1.52;100.00;97916.36;1736496;81;21139;-54
2021/03/16 05:39:36;;;;;;;8.00;5.65;;;;;;;1.56;100.00;97920.34;1825163;78;21000;-55
2021/03/16 05:42:24;;;;;;;6.22;5.30;;;;;;;1.56;100.00;97913.31;1809106;78;21037;-56
2021/03/16 05:45:11;;;;;;;11.10;6.17;;;;;;;1.57;100.00;97925.42;1827720;78;20961;-56
2021/03/16 05:47:57;;;;;;;9.80;6.55;;;;;;;1.61;100.00;97927.27;1748503;80;21090;-55
2021/03/16 05:50:44;;;;;;;7.20;6.30;;;;;;;1.62;100.00;97917.09;1753001;81;21108;-55
2021/03/16 05:53:31;;;;;;;7.40;6.30;;;;;;;1.62;100.00;97920.55;1811326;78;21395;-56
2021/03/16 05:56:20;;;;;;;9.80;7.22;;;;;;;1.63;100.00;97920.06;1761751;80;21130;-56
2021/03/16 05:59:09;;;;;;;7.83;6.22;;;;;;;1.62;100.00;97915.30;1809284;78;21208;-58
2021/03/16 06:01:55;;;;;;;7.50;5.67;;;;;;;1.63;100.00;97920.06;1790691;78;21010;-60
2021/03/16 06:04:43;;;;;;;5.42;4.90;;;;;;;1.64;100.00;97919.10;1800580;78;21076;-56
2021/03/16 06:07:30;;;;;;;6.87;5.83;;;;;;;1.65;100.00;97920.25;1772308;80;22532;-55
2021/03/16 06:10:20;;;;;;;5.50;5.00;;;;;;;1.69;100.00;97932.09;1771716;79;21092;-56
2021/03/16 06:13:16;;;;;;;6.50;4.47;;;;;;;1.70;100.00;97931.58;1777685;80;21128;-54
2021/03/16 06:16:12;;;;;;;6.05;4.87;;;;;;;1.71;100.00;97935.37;1781218;79;21159;-53
2021/03/16 06:19:01;;;;;;;8.63;5.67;;;;;;;1.72;100.00;97927.03;1778872;79;21111;-55
2021/03/16 06:22:05;;;;;;;5.37;4.70;;;;;;;1.74;100.00;97932.45;1785219;79;21386;-55
2021/03/16 06:24:51;;;;;;;5.00;4.50;;;;;;;1.75;100.00;97939.33;1782439;79;21013;-55
2021/03/16 06:27:37;;;;;;;6.40;4.42;;;;;;;1.81;100.00;97939.21;1784672;79;20879;-55
2021/03/16 06:30:25;;;;;;;7.70;5.75;;;;;;;1.83;100.00;97941.19;1783371;79;21598;-56
2021/03/16 06:33:21;;;;;;;5.40;4.40;;;;;;;1.84;100.00;97939.73;1715511;81;21215;-54
2021/03/16 06:36:08;;;;;;;7.05;4.30;;;;;;;1.85;100.00;97932.70;1780009;79;21393;-56
2021/03/16 06:38:55;;;;;;;4.15;3.55;;;;;;;1.85;100.00;97948.44;1720995;81;21057;-56
2021/03/16 06:41:41;;;;;;;4.10;3.70;;;;;;;1.91;100.00;97942.56;1784786;79;21069;-55
2021/03/16 06:44:27;;;;;;;6.30;3.67;;;;;;;1.96;100.00;97941.61;1786977;79;26711;-54
2021/03/16 06:47:14;;;;;;;9.63;7.40;;;;;;;1.96;100.00;97941.61;1784700;79;21184;-55
2021/03/16 06:50:00;;;;;;;5.37;3.58;;;;;;;1.97;100.00;97943.27;1720419;81;21205;-55
2021/03/16 06:52:50;;;;;;;6.80;3.70;;;;;;;1.98;100.00;97946.23;1780652;80;21151;-55
2021/03/16 06:55:36;;;;;;;4.30;3.83;;;;;;;1.96;100.00;97946.86;1783812;79;21151;-58
2021/03/16 06:58:30;;;;;;;5.50;3.47;;;;;;;1.97;100.00;97951.14;1770721;79;21116;-57
2021/03/16 07:01:16;;;;;;;8.83;3.87;;;;;;;2.00;100.00;97955.25;1784076;79;21203;-56
2021/03/16 07:04:13;;;;;;;5.80;3.45;;;;;;;2.01;100.00;97960.33;1782783;79;26863;-57
2021/03/16 07:06:59;;;;;;;4.72;3.30;;;;;;;1.99;100.00;97954.91;1791023;79;21227;-56
2021/03/16 07:09:46;;;;;;;5.78;3.45;;;;;;;2.00;100.00;97958.70;1717340;81;21009;-56
2021/03/16 07:12:34;;;;;;;4.33;2.75;;;;;;;2.01;100.00;97960.33;1796232;79;21065;-55
2021/03/16 07:15:20;;;;;;;13.98;3.92;;;;;;;2.01;100.00;97970.02;1719390;81;21587;-56
2021/03/16 07:18:10;;;;;;;5.08;2.92;;;;;;;1.97;100.00;97959.00;1793378;79;21490;-57
2021/03/16 07:20:57;;;;;;;4.15;3.37;;;;;;;1.96;100.00;97955.20;1765381;79;21108;-55
2021/03/16 07:23:50;;;;;;;8.03;3.58;;;;;;;1.97;100.00;97957.69;1727603;82;21015;-56
2021/03/16 07:26:37;;;;;;;6.65;3.98;;;;;;;2.00;100.00;97965.27;1793189;79;21108;-55
2021/03/16 07:29:23;;;;;;;16.60;5.35;;;;;;;1.96;99.91;97961.28;1787048;79;21092;-56
2021/03/16 07:32:10;;;;;;;7.08;4.60;;;;;;;1.95;100.00;97965.37;1793969;79;21246;-55
2021/03/16 07:35:00;;;;;;;12.15;5.58;;;;;;;1.96;99.93;97970.94;1772255;79;20974;-56
2021/03/16 07:37:48;;;;;;;16.48;9.48;;;;;;;1.96;99.95;97973.08;1778704;79;21064;-56
2021/03/16 07:40:36;;;;;;;12.95;9.93;;;;;;;1.99;99.86;97970.16;1773464;79;20970;-57
2021/03/16 07:43:40;;;;;;;6.33;5.62;;;;;;;1.99;99.73;97963.60;1771083;79;21137;-56
2021/03/16 07:46:44;;;;;;;5.20;3.55;;;;;;;2.01;99.54;97972.13;1771258;79;21215;-55
2021/03/16 07:49:34;;;;;;;4.67;3.58;;;;;;;2.00;99.34;97965.74;1756610;81;21223;-55
2021/03/16 07:52:26;;;;;;;3.70;3.30;;;;;;;2.00;99.57;97971.81;1788673;79;21068;-56
2021/03/16 07:55:29;;;;;;;4.67;2.60;;;;;;;2.07;99.50;97968.91;1791191;79;21112;-56
2021/03/16 07:58:24;;;;;;;3.60;3.12;;;;;;;2.08;99.16;97966.63;1785089;79;21654;-56
2021/03/16 08:01:13;;;;;;;3.95;3.55;;;;;;;2.10;98.93;97976.95;1775690;79;21156;-56
2021/03/16 08:04:12;;;;;;;3.75;2.95;;;;;;;2.07;98.85;97963.66;1783206;79;21136;-55
2021/03/16 08:06:59;;;;;;;3.05;2.75;;;;;;;2.08;98.77;97964.49;1707507;82;21041;-56
2021/03/16 08:09:47;;;;;;;2.75;2.50;;;;;;;2.07;98.64;97967.59;1710870;83;21128;-56
2021/03/16 08:12:33;;;;;;;3.33;3.02;;;;;;;2.05;98.50;97965.63;1759757;80;21115;-55
2021/03/16 08:15:21;;;;;;;3.52;3.17;;;;;;;2.03;98.55;97966.27;1776368;80;25130;-57
2021/03/16 08:18:14;;;;;;;3.55;3.25;;;;;;;2.02;98.58;97963.78;1781086;80;21056;-54
2021/03/16 08:21:12;;;;;;;3.47;3.17;;;;;;;2.02;98.68;97965.09;1779054;80;21148;-56
2021/03/16 08:24:10;;;;;;;2.90;2.70;;;;;;;2.03;98.89;97964.13;1774085;80;21152;-55
2021/03/16 08:26:56;;;;;;;3.15;2.55;;;;;;;2.06;98.96;97963.31;1777703;80;21129;-55
2021/03/16 08:29:49;;;;;;;2.25;2.10;;;;;;;2.08;98.87;97958.77;1779578;80;21209;-55
2021/03/16 08:32:36;;;;;;;3.08;2.77;;;;;;;2.11;99.01;97958.43;1777727;80;20989;-57
2021/03/16 08:35:23;;;;;;;5.78;3.90;;;;;;;2.14;99.06;97962.06;1779498;80;21005;-59
2021/03/16 08:38:10;;;;;;;3.55;3.20;;;;;;;2.16;99.10;97960.13;1780970;80;21024;-55
2021/03/16 08:41:10;;;;;;;3.98;3.08;;;;;;;2.18;98.93;97963.41;1725384;80;21147;-56
2021/03/16 08:43:56;;;;;;;4.60;3.80;;;;;;;2.18;98.78;97969.14;1776199;80;21453;-55
2021/03/16 08:46:42;;;;;;;3.83;2.95;;;;;;;2.15;98.75;97966.83;1745199;81;25039;-57
2021/03/16 08:49:29;;;;;;;2.85;2.55;;;;;;;2.18;98.82;97973.91;1780061;80;21093;-55
2021/03/16 08:52:29;;;;;;;2.50;2.20;;;;;;;2.20;98.82;97980.30;1761160;80;21172;-56
2021/03/16 08:55:25;;;;;;;2.67;2.42;;;;;;;2.22;98.71;97975.72;1777424;80;21072;-55
2021/03/16 08:58:11;;;;;;;2.62;2.40;;;;;;;2.22;98.50;97977.86;1777146;80;21391;-56
2021/03/16 09:00:57;;;;;;;2.10;1.90;;;;;;;2.21;98.37;97978.86;1747736;80;20989;-54
2021/03/16 09:03:44;;;;;;;2.10;1.90;;;;;;;2.17;98.04;97976.19;1771272;80;21188;-56
2021/03/16 09:06:31;;;;;;;3.15;2.60;;;;;;;2.14;97.93;97979.63;1753736;79;21096;-56
2021/03/16 09:09:25;;;;;;;2.55;2.33;;;;;;;2.10;97.88;97975.16;1772407;79;21175;-54
2021/03/16 09:12:13;;;;;;;2.45;2.22;;;;;;;2.06;97.98;97982.19;1786349;79;21192;-56
2021/03/16 09:15:11;;;;;;;3.42;2.08;;;;;;;2.08;98.08;97978.44;1790915;79;21088;-57
2021/03/16 09:18:00;;;;;;;2.58;1.67;;;;;;;2.07;97.83;97988.58;1787783;79;21420;-56
2021/03/16 09:20:47;;;;;;;2.05;1.87;;;;;;;2.01;97.73;97992.32;1791469;79;21029;-56
2021/03/16 09:23:33;;;;;;;1.92;1.82;;;;;;;1.97;97.68;97987.86;1782729;79;21124;-55
2021/03/16 09:26:26;;;;;;;2.53;2.33;;;;;;;1.93;97.51;97998.30;1793328;79;21473;-54
2021/03/16 09:29:11;;;;;;;2.70;2.47;;;;;;;1.86;97.74;97992.85;1782610;79;21161;-54
2021/03/16 09:32:00;;;;;;;3.92;2.85;;;;;;;1.84;97.86;97988.73;1788037;79;21124;-54
2021/03/16 09:34:47;;;;;;;3.10;2.80;;;;;;;1.81;97.96;97994.27;1695324;82;21017;-55
2021/03/16 09:37:47;;;;;;;3.27;2.70;;;;;;;1.78;98.14;97989.33;1792413;79;21105;-55
2021/03/16 09:40:42;;;;;;;2.42;2.22;;;;;;;1.82;98.35;97995.94;1716920;82;22868;-57
2021/03/16 09:43:37;;;;;;;3.02;2.00;;;;;;;1.91;98.53;97998.94;1818303;77;28602;-55
2021/03/16 09:46:12;;;;;;;2.37;1.87;;;;;;;1.84;98.61;97997.43;1780356;79;20918;-56
2021/03/16 09:48:51;;;;;;;1.75;1.65;;;;;;;1.82;98.69;97999.88;1776653;78;21370;-57
2021/03/16 09:51:25;;;;;;;1.85;1.67;;;;;;;1.80;98.78;98003.10;1778598;79;20926;-55
2021/03/16 09:53:57;;;;;;;3.08;2.02;;;;;;;1.79;99.01;98004.93;1777967;79;21080;-55
2021/03/16 09:56:28;;;;;;;1.62;1.52;;;;;;;1.80;98.96;98007.04;1778528;79;21645;-55
2021/03/16 09:59:00;;;;;;;2.10;1.90;;;;;;;1.82;99.20;98008.56;1787029;79;21530;-57
2021/03/16 10:01:29;;;;;;;1.47;1.35;;;;;;;1.85;99.20;98006.13;1780992;79;21265;-55
2021/03/16 10:04:01;;;;;;;2.00;1.40;;;;;;;1.87;99.25;98010.73;1776641;79;20978;-56
2021/03/16 10:06:43;;;;;;;1.47;1.37;;;;;;;1.88;99.19;98008.42;1776794;79;21479;-56
2021/03/16 10:09:19;;;;;;;1.45;1.35;;;;;;;1.86;99.14;98008.59;1776322;79;21198;-55
2021/03/16 10:11:48;;;;;;;1.32;1.22;;;;;;;1.88;99.02;98015.48;1797688;79;21550;-55
2021/03/16 10:14:27;;;;;;;1.55;1.45;;;;;;;1.89;99.18;98015.33;1781926;79;21653;-56
2021/03/16 10:16:55;;;;;;;1.27;1.17;;;;;;;1.91;99.11;98014.68;1776913;80;21057;-55
2021/03/16 10:19:25;;;;;;;1.50;1.40;;;;;;;1.94;98.97;98008.31;1788924;77;20980;-55
2021/03/16 10:21:53;;;;;;;0.78;0.78;;;;;;;1.95;99.07;98003.41;1811922;79;21146;-57
2021/03/16 10:24:26;;;;;;;1.15;0.85;;;;;;;2.02;99.28;98006.58;1811940;79;21126;-55
2021/03/16 10:27:00;;;;;;;1.30;1.20;;;;;;;2.08;99.11;98013.02;1811779;79;21359;-56
2021/03/16 10:29:27;;;;;;;2.08;1.25;;;;;;;2.10;98.89;98012.37;1808057;79;20990;-55
2021/03/16 10:31:55;;;;;;;1.25;1.15;;;;;;;2.12;98.75;98003.37;1808840;79;21033;-56
2021/03/16 10:34:22;;;;;;;2.65;1.30;;;;;;;2.18;98.87;98005.40;1799346;79;21124;-56
2021/03/16 10:36:50;;;;;;;1.70;1.20;;;;;;;2.23;98.64;98004.45;1792256;79;21151;-56
2021/03/16 10:39:18;;;;;;;1.57;1.30;;;;;;;2.30;98.21;98005.47;1794430;79;21367;-57
2021/03/16 10:41:48;;;;;;;1.42;1.32;;;;;;;2.32;97.79;98011.37;1793923;77;21184;-57
2021/03/16 10:44:16;;;;;;;1.22;1.12;;;;;;;2.35;97.52;98014.19;1780625;79;21037;-58
2021/03/16 10:46:45;;;;;;;1.50;1.40;;;;;;;2.36;97.21;98015.36;1781001;79;20994;-55
2021/03/16 10:49:13;;;;;;;2.37;1.40;;;;;;;2.37;97.06;98020.13;1783581;79;21092;-58
2021/03/16 10:51:41;;;;;;;1.82;1.27;;;;;;;2.40;97.00;98023.25;1777747;79;21366;-56
2021/03/16 10:54:09;;;;;;;2.05;1.07;;;;;;;2.45;96.93;98018.36;1765966;79;21144;-57
2021/03/16 10:56:37;;;;;;;2.47;1.30;;;;;;;2.48;96.71;98019.36;1765733;81;21134;-57
2021/03/16 10:59:07;;;;;;;1.30;1.20;;;;;;;2.47;96.51;98012.48;1776806;78;21157;-55
2021/03/16 11:01:35;;;;;;;1.20;0.90;;;;;;;2.52;96.70;98016.44;1751972;81;21196;-59
2021/03/16 11:04:03;;;;;;;1.10;1.00;;;;;;;2.53;96.55;98014.95;1833048;78;21408;-56
2021/03/16 11:06:31;;;;;;;3.37;1.32;;;;;;;2.55;96.57;98016.12;1733765;81;21235;-54
2021/03/16 11:08:59;;;;;;;1.60;1.50;;;;;;;2.57;96.51;98019.41;1737688;82;20990;-57
2021/03/16 11:11:26;;;;;;;1.90;1.80;;;;;;;2.57;96.31;98020.73;1792533;79;21104;-56
2021/03/16 11:13:55;;;;;;;1.72;1.62;;;;;;;2.53;96.19;98019.41;1780966;79;21563;-58
2021/03/16 11:16:22;;;;;;;1.52;1.40;;;;;;;2.48;96.19;98012.80;1783514;79;21206;-57
2021/03/16 11:18:50;;;;;;;1.67;1.57;;;;;;;2.47;96.24;98017.73;1797128;79;21142;-58
2021/03/16 11:21:19;;;;;;;1.82;1.32;;;;;;;2.45;96.11;98018.87;1797190;79;20923;-58
2021/03/16 11:23:46;;;;;;;1.30;1.20;;;;;;;2.43;96.19;98016.38;1791179;78;21053;-55
2021/03/16 11:26:14;;;;;;;1.20;1.10;;;;;;;2.43;96.21;98021.63;1733274;81;21248;-55
2021/03/16 11:28:41;;;;;;;1.40;1.30;;;;;;;2.39;96.03;98024.73;1737243;82;21437;-56
2021/03/16 11:31:11;;;;;;;2.17;1.40;;;;;;;2.35;96.22;98026.83;1796350;79;20939;-55
2021/03/16 11:33:42;;;;;;;1.32;1.00;;;;;;;2.35;96.39;98033.38;1795272;79;21556;-56
2021/03/16 11:36:28;;;;;;;1.60;0.87;;;;;;;2.35;96.50;98033.38;1797001;79;21100;-55
2021/03/16 11:39:13;;;;;;;0.95;0.90;;;;;;;2.38;96.53;98026.52;1796759;79;21108;-56
2021/03/16 11:41:59;;;;;;;0.75;0.75;;;;;;;2.39;96.51;98024.25;1796013;79;21655;-56
2021/03/16 11:44:45;;;;;;;0.90;0.90;;;;;;;2.40;96.40;98025.88;1796178;79;21037;-56
2021/03/16 11:47:31;;;;;;;0.80;0.80;;;;;;;2.37;96.33;98032.73;1796932;79;21160;-56
2021/03/16 11:50:17;;;;;;;0.85;0.85;;;;;;;2.33;96.31;98037.14;1797195;79;21033;-55
2021/03/16 11:53:04;;;;;;;0.80;0.80;;;;;;;2.26;96.42;98034.32;1797600;79;20958;-55
2021/03/16 11:55:50;;;;;;;2.35;1.32;;;;;;;2.23;96.55;98039.04;1797523;79;22587;-56
2021/03/16 11:58:36;;;;;;;0.90;0.90;;;;;;;2.18;96.72;98042.61;1797643;79;20930;-55
2021/03/16 12:01:23;;;;;;;1.27;0.85;;;;;;;2.19;96.82;98037.71;1797592;79;21056;-55
2021/03/16 12:04:11;;;;;;;1.20;1.10;;;;;;;2.18;96.81;98032.11;1797438;79;21005;-54
2021/03/16 12:06:57;;;;;;;3.30;2.25;;;;;;;2.18;97.02;98032.95;1797582;79;24994;-56
2021/03/16 12:09:44;;;;;;;6.58;5.95;;;;;;;2.21;96.97;98033.95;1797480;79;21200;-54
2021/03/16 12:12:31;;;;;;;9.60;8.60;;;;;;;2.22;96.92;98034.27;1797397;79;21010;-55
2021/03/16 12:15:18;;;;;;;8.83;7.92;;;;;;;2.25;96.83;98037.91;1797640;79;20938;-55
2021/03/16 12:18:06;;;;;;;5.20;4.70;;;;;;;2.24;96.62;98041.50;1797434;79;20910;-55
2021/03/16 12:20:52;;;;;;;3.58;3.27;;;;;;;2.19;96.50;98039.83;1797584;79;20989;-56
2021/03/16 12:23:39;;;;;;;3.55;3.08;;;;;;;2.16;96.46;98040.16;1797539;79;21190;-55
2021/03/16 12:26:25;;;;;;;4.22;1.85;;;;;;;2.13;96.62;98040.45;1797491;79;20970;-56
2021/03/16 12:29:10;;;;;;;2.30;2.10;;;;;;;2.12;96.62;98044.52;1797681;79;20946;-54
2021/03/16 12:31:56;;;;;;;2.12;1.82;;;;;;;2.09;96.66;98041.72;1797583;79;20911;-55
2021/03/16 12:34:44;;;;;;;2.42;2.22;;;;;;;2.06;96.72;98043.84;1797437;79;20958;-55
2021/03/16 12:37:30;;;;;;;3.75;2.52;;;;;;;2.05;96.77;98044.31;1797569;79;21354;-54
2021/03/16 12:40:16;;;;;;;2.65;2.35;;;;;;;2.02;96.65;98048.55;1797560;79;20930;-56
2021/03/16 12:43:03;;;;;;;2.22;1.92;;;;;;;2.00;96.84;98041.33;1797456;79;20954;-55
2021/03/16 12:45:49;;;;;;;2.90;2.10;;;;;;;2.03;96.95;98048.07;1797535;79;21037;-55
2021/03/16 12:48:35;;;;;;;2.02;1.55;;;;;;;2.05;96.91;98045.62;1797632;79;21013;-56
2021/03/16 12:51:21;;;;;;;2.58;2.02;;;;;;;2.12;96.97;98049.28;1797579;79;21342;-55
2021/03/16 12:54:07;;;;;;;3.27;1.85;;;;;;;2.16;96.73;98045.88;1797597;79;20927;-55